Latest Weather Observations for Shay Gap

IDW60801

Issued at 5:02 am WST Saturday 28 February 2015 (issued every 30 minutes, with the page automatically refreshed every 10 minutes)

About weather observations | Map of weather stations | Latest weather observations for WA | Other Formats
Station Details ID: 504045 Name: SHAY GAP Lat: -20.43 Lon: 120.13 Height: 173.83 m
Data from the previous 72 hours. | See also: Recent months for locations in Western Australia
Date/Time
WST
Temp
°C
App
Temp
°C
Dew
Point
Rel
Hum
%
Delta-T
°C
Wind Press
QNH
hPa
Press
MSL
hPa
Rain
since 9 am
mm
Dir
 
Spd
km/h
Gust
km/h
Spd
kts
Gust
kts
28/05:00am 27.1 31.3 24.7 87 1.7 W 11 13 6 7 1007.9 1006.4 0.0
28/04:30am 27.0 32.0 24.8 88 1.5 W 7 11 4 6 1007.7 1006.2 0.0
28/04:00am 27.0 31.5 24.6 87 1.7 W 9 13 5 7 1007.7 1006.2 0.0
28/03:30am 27.1 31.6 24.6 86 1.7 WNW 9 11 5 6 1007.7 1006.2 0.0
28/03:00am 27.2 31.3 24.5 85 1.9 WNW 11 15 6 8 1007.7 1006.2 0.0
28/02:30am 27.3 31.6 24.2 83 2.2 WNW 9 13 5 7 1007.9 1006.4 0.0
28/02:00am 27.4 31.2 24.0 82 2.4 WNW 11 17 6 9 1007.7 1006.2 0.0
28/01:30am 27.3 31.3 24.4 84 2.0 WNW 11 17 6 9 1007.8 1006.3 0.0
28/01:00am 27.4 31.2 24.0 82 2.4 NW 11 15 6 8 1008.2 1006.8 0.0
28/12:30am 27.8 31.7 24.2 81 2.5 NW 11 15 6 8 1008.4 1007.0 0.0
28/12:00am 27.8 30.9 24.2 81 2.5 WNW 15 17 8 9 1008.7 1007.3 0.0
 
Date/Time
WST
Temp
°C
App
Temp
°C
Dew
Point
Rel
Hum
%
Delta-T
°C
Wind Press
QNH
hPa
Press
MSL
hPa
Rain
since 9 am
mm
Dir
 
Spd
km/h
Gust
km/h
Spd
kts
Gust
kts
27/11:30pm 27.9 30.6 24.7 83 2.2 WNW 19 24 10 13 1008.9 1007.5 0.0
27/11:00pm 28.0 31.4 25.2 85 2.0 WNW 17 24 9 13 1008.8 1007.4 0.0
27/10:30pm 27.9 31.4 24.9 84 2.1 WNW 15 19 8 10 1009.0 1007.6 0.0
27/10:00pm 28.0 31.1 24.8 83 2.2 WNW 17 20 9 11 1008.7 1007.3 0.0
27/09:30pm 28.3 31.2 24.5 80 2.7 NW 17 20 9 11 1008.3 1006.9 0.0
27/09:00pm 28.6 31.5 24.4 78 2.9 NW 17 22 9 12 1008.1 1006.6 0.0
27/08:30pm 28.8 31.4 23.9 75 3.4 NNW 17 22 9 12 1007.7 1006.2 0.0
27/08:00pm 29.1 31.1 24.0 74 3.6 NNW 20 26 11 14 1007.5 1006.0 0.0
27/07:30pm 29.5 30.4 23.4 69 4.2 NNW 24 32 13 17 1007.2 1005.7 0.0
27/07:00pm 30.1 30.8 23.0 65 4.9 N 24 32 13 17 1006.6 1005.1 0.0
27/06:30pm 30.7 30.9 22.8 62 5.5 NNW 26 35 14 19 1005.8 1004.3 0.0
27/06:00pm 32.7 32.2 22.8 56 6.9 N 30 35 16 19 1005.0 1003.5 0.0
27/05:30pm 35.9 37.8 21.3 42 10.0 N 13 20 7 11 1004.3 1002.9 0.0
27/05:00pm 36.1 37.9 21.1 41 10.3 N 13 28 7 15 1003.9 1002.5 0.0
27/04:30pm 36.1 37.1 20.3 39 10.7 NNW 15 24 8 13 1004.0 1002.6 0.0
27/04:00pm 36.7 37.8 20.5 39 11.0 NNW 15 20 8 11 1003.9 1002.5 0.0
27/03:30pm 36.2 37.6 19.6 37 11.1 N 11 20 6 11 1004.2 1002.8 0.0
27/03:00pm 35.7 37.5 20.4 40 10.4 NNE 11 20 6 11 1004.5 1003.1 0.0
27/02:30pm 34.9 37.5 21.2 45 9.3 ENE 9 17 5 9 1005.0 1003.5 0.0
27/02:00pm 35.2 37.2 21.5 45 9.4 NNE 13 24 7 13 1005.6 1004.1 0.0
27/01:30pm 35.5 37.8 21.4 44 9.6 NE 11 20 6 11 1006.2 1004.7 0.0
27/01:00pm 34.7 35.9 20.6 43 9.5 N 15 24 8 13 1006.8 1005.3 0.0
27/12:30pm 34.1 37.2 22.2 50 8.2 N 9 15 5 8 1007.2 1005.7 0.0
27/12:00pm 33.5 36.9 21.6 49 8.1 NW 6 11 3 6 1007.6 1006.1 0.0
27/11:30am 32.2 35.4 21.7 54 7.2 E 7 13 4 7 1007.8 1006.3 0.0
27/11:00am 31.9 35.6 22.6 58 6.4 ENE 7 9 4 5 1007.9 1006.4 0.0
27/10:30am 30.8 34.6 22.4 61 5.8 W 6 9 3 5 1008.4 1007.0 0.0
27/10:00am 30.0 34.0 22.7 65 5.0 ESE 6 9 3 5 1008.8 1007.4 0.0
27/09:30am 29.4 34.3 23.6 71 4.0 NE 4 7 2 4 1008.9 1007.5 0.0
27/09:00am 27.7 32.3 23.1 76 3.2 N 4 7 2 4 1009.2 1007.8 1.8
27/08:30am 27.6 32.1 23.6 79 2.8 NNW 6 9 3 5 1009.0 1007.6 1.8
27/08:00am 26.4 31.1 23.9 86 1.7 SW 6 7 3 4 1008.6 1007.2 1.8
27/07:33am 25.6 30.9 23.1 86 1.7 CALM 0 0 0 0 1008.6 1007.2 1.8
27/07:30am 25.5 30.8 23.0 86 1.7 CALM 0 0 0 0 1008.6 1007.2 1.8
27/07:00am 25.2 30.0 22.9 87 1.6 SW 2 7 1 4 1008.1 1006.6 1.8
27/06:30am 24.6 27.3 22.8 90 1.2 SW 13 20 7 11 1007.4 1005.9 1.8
27/06:00am 24.4 27.4 22.7 90 1.2 SW 11 15 6 8 1007.5 1006.0 1.8
27/05:30am 24.4 26.7 22.7 90 1.2 SSW 15 20 8 11 1007.6 1006.1 1.8
27/05:00am 24.5 26.4 22.7 90 1.2 S 17 22 9 12 1007.3 1005.8 1.8
27/04:30am 24.8 27.3 23.2 91 1.1 SSW 15 19 8 10 1006.9 1005.4 1.8
27/04:00am 24.7 28.7 23.1 91 1.1 NNW 7 15 4 8 1007.6 1006.1 1.8
27/03:30am 24.4 27.1 23.4 94 0.7 N 15 20 8 11 1007.4 1005.9 1.8
27/03:00am 23.9 25.1 23.2 96 0.5 NNE 22 30 12 16 1007.5 1006.0 1.6
27/02:30am 23.4 23.0 22.4 94 0.7 NNE 28 37 15 20 1008.0 1006.5 1.4
27/02:00am 23.7 22.1 21.6 88 1.4 NE 32 39 17 21 1008.4 1007.0 1.2
27/01:30am 23.2 21.2 21.8 92 0.9 NE 35 46 19 25 1008.9 1007.5 1.2
27/01:20am 23.1 20.3 21.7 92 0.9 NE 39 48 21 26 1009.1 1007.7 0.8
27/01:07am 23.0 18.9 21.8 93 0.8 NE 46 65 25 35 1009.2 1007.8 0.8
27/01:00am 22.8 17.7 21.3 91 1.0 NE 50 65 27 35 1009.4 1008.0 0.2
27/12:59am 23.0 17.9 21.4 91 1.1 NE 50 65 27 35 1009.4 1008.0 0.0
27/12:42am 26.8 27.2 21.8 74 3.4 NE 22 63 12 34 1009.3 1007.9 0.0
27/12:30am 28.1 32.8 24.9 83 2.2 N 9 13 5 7 1008.4 1007.0 0.0
27/12:00am 28.2 32.7 24.6 81 2.5 NNW 9 11 5 6 1008.4 1007.0 0.0
 
Date/Time
WST
Temp
°C
App
Temp
°C
Dew
Point
Rel
Hum
%
Delta-T
°C
Wind Press
QNH
hPa
Press
MSL
hPa
Rain
since 9 am
mm
Dir
 
Spd
km/h
Gust
km/h
Spd
kts
Gust
kts
26/11:30pm 28.4 33.2 24.4 79 2.8 NW 7 9 4 5 1008.3 1006.9 0.0
26/11:00pm 28.6 32.6 24.4 78 2.9 NW 11 17 6 9 1008.4 1007.0 0.0
26/10:30pm 28.6 31.8 24.4 78 2.9 NW 15 20 8 11 1008.6 1007.2 0.0
26/10:00pm 28.9 32.2 24.5 77 3.1 NW 15 19 8 10 1008.7 1007.3 0.0
26/09:30pm 29.1 32.2 24.2 75 3.4 NW 15 20 8 11 1008.4 1007.0 0.0
26/09:00pm 29.3 32.4 24.2 74 3.6 NNW 15 20 8 11 1008.0 1006.5 0.0
26/08:30pm 29.8 32.4 24.0 71 4.0 NNW 17 20 9 11 1007.4 1005.9 0.0
26/08:00pm 30.3 32.1 23.2 65 4.9 N 19 24 10 13 1006.9 1005.4 0.0
26/07:30pm 30.9 32.5 22.8 62 5.6 N 19 24 10 13 1006.1 1004.6 0.0
26/07:00pm 31.7 32.7 22.1 56 6.6 NNW 20 24 11 13 1005.7 1004.2 0.0
26/06:30pm 32.5 32.7 22.0 54 7.2 NNW 24 30 13 16 1005.2 1003.7 0.0
26/06:00pm 33.4 32.9 21.5 49 8.1 NNW 26 33 14 18 1005.0 1003.5 0.0
26/05:30pm 34.6 33.8 21.6 46 8.9 NNW 28 35 15 19 1004.5 1003.1 0.0
26/05:00pm 35.6 35.1 20.7 41 10.1 N 24 32 13 17 1004.4 1003.0 0.0
26/04:30pm 36.1 35.6 19.9 38 10.9 N 22 30 12 16 1004.5 1003.1 0.0
26/04:00pm 36.1 35.8 20.3 39 10.7 N 22 33 12 18 1004.4 1003.0 0.0
26/03:30pm 36.5 34.8 19.9 38 11.2 N 28 35 15 19 1004.4 1003.0 0.0
26/03:00pm 37.4 36.5 20.7 38 11.4 N 26 41 14 22 1004.6 1003.2 0.0
26/02:30pm 36.8 36.0 20.1 37 11.3 NNE 24 39 13 21 1005.1 1003.6 0.0
26/02:00pm 37.1 37.2 21.2 39 10.9 NNE 22 35 12 19 1005.4 1003.9 0.0
26/01:30pm 37.1 36.5 21.2 39 10.9 NNE 26 35 14 19 1005.8 1004.3 0.0
26/01:00pm 36.5 35.8 20.3 38 11.0 NNE 24 33 13 18 1006.2 1004.7 0.0
26/12:30pm 36.8 37.0 20.6 39 11.0 N 20 32 11 17 1006.7 1005.2 0.0
26/12:00pm 35.5 35.5 20.2 40 10.3 NNE 20 26 11 14 1007.4 1005.9 0.0
26/11:30am 35.8 36.4 21.3 43 9.9 NNE 20 30 11 16 1007.9 1006.4 0.0
26/11:00am 36.1 37.4 20.8 41 10.4 NE 15 33 8 18 1008.4 1007.0 0.0
26/10:30am 34.5 37.3 21.5 46 8.9 NNW 9 17 5 9 1008.8 1007.4 0.0
26/10:00am 33.7 36.7 21.2 48 8.5 ENE 7 13 4 7 1009.2 1007.8 0.0
26/09:30am 33.1 35.4 21.3 50 8.0 E 11 19 6 10 1009.5 1008.1 0.0
26/09:00am 32.5 35.0 21.0 50 7.8 E 9 17 5 9 1009.5 1008.1 0.0
26/08:30am 31.9 33.7 21.1 52 7.3 SE 13 17 7 9 1009.3 1007.9 0.0
26/08:00am 31.2 33.1 21.4 56 6.6 SSE 13 17 7 9 1009.1 1007.7 0.0
26/07:30am 30.3 33.3 22.7 64 5.2 SE 11 13 6 7 1009.1 1007.7 0.0
26/07:00am 28.8 32.4 23.0 71 4.0 SE 9 13 5 7 1008.8 1007.4 0.0
26/06:30am 27.5 31.7 23.5 79 2.8 S 7 9 4 5 1008.4 1007.0 0.0
26/06:00am 27.0 31.2 23.5 81 2.4 SW 7 7 4 4 1008.3 1006.9 0.0
26/05:30am 27.1 31.1 23.1 79 2.7 SW 7 9 4 5 1008.0 1006.5 0.0
26/05:00am 27.2 31.1 23.0 78 2.9 SW 7 9 4 5 1007.7 1006.2 0.0
26/04:30am 27.3 31.3 23.1 78 2.9 SW 7 9 4 5 1007.5 1006.0 0.0
26/04:00am 27.2 30.9 23.9 82 2.3 WSW 11 13 6 7 1007.2 1005.7 0.0
26/03:30am 27.4 30.3 23.8 81 2.5 WSW 15 19 8 10 1007.1 1005.6 0.0
26/03:00am 27.5 30.8 23.9 81 2.5 W 13 17 7 9 1007.0 1005.5 0.0
26/02:30am 27.6 31.5 24.2 82 2.4 W 11 15 6 8 1007.2 1005.7 0.0
26/02:00am 27.6 32.0 24.4 83 2.2 W 9 11 5 6 1007.6 1006.1 0.0
26/01:30am 27.6 32.0 24.4 83 2.2 W 9 11 5 6 1007.8 1006.3 0.0
26/01:00am 27.9 32.0 24.5 82 2.4 WSW 11 15 6 8 1008.1 1006.6 0.0
26/12:30am 28.0 31.4 24.6 82 2.4 W 15 20 8 11 1008.2 1006.8 0.0
26/12:00am 28.2 31.3 24.2 79 2.8 W 15 19 8 10 1008.3 1006.9 0.0
 
Date/Time
WST
Temp
°C
App
Temp
°C
Dew
Point
Rel
Hum
%
Delta-T
°C
Wind Press
QNH
hPa
Press
MSL
hPa
Rain
since 9 am
mm
Dir
 
Spd
km/h
Gust
km/h
Spd
kts
Gust
kts
25/11:30pm 28.2 31.6 24.0 78 2.9 W 13 19 7 10 1008.6 1007.2 0.0
25/11:00pm 28.2 31.6 24.0 78 2.9 WNW 13 15 7 8 1008.9 1007.5 0.0
25/10:30pm 28.3 31.7 24.1 78 2.9 NW 13 17 7 9 1009.4 1008.0 0.0
25/10:00pm 28.5 32.2 23.9 76 3.2 NW 11 13 6 7 1009.5 1008.1 0.0
25/09:30pm 28.8 32.0 23.7 74 3.5 WNW 13 17 7 9 1009.4 1008.0 0.0
25/09:00pm 29.1 32.5 23.3 71 4.0 NW 11 15 6 8 1009.3 1007.9 0.0
25/08:30pm 29.5 32.7 23.0 68 4.5 NW 11 15 6 8 1008.8 1007.4 0.0
25/08:00pm 29.8 32.5 22.8 66 4.8 NW 13 19 7 10 1008.3 1006.9 0.0
25/07:30pm 30.4 32.5 23.1 65 5.0 NW 17 20 9 11 1008.0 1006.5 0.0
25/07:00pm 30.7 32.8 23.1 64 5.3 NW 17 20 9 11 1007.5 1006.0 0.0
25/06:30pm 31.7 33.4 23.0 60 6.0 NNW 19 22 10 12 1007.0 1005.5 0.0
25/06:00pm 32.7 34.1 22.8 56 6.9 NNW 20 26 11 14 1006.7 1005.2 0.0
25/05:30pm 33.4 34.8 22.8 53 7.3 NNW 20 24 11 13 1006.7 1005.2 0.0
25/05:00pm 34.0 34.8 23.1 53 7.6 NNW 24 33 13 18 1006.3 1004.8 0.0
25/04:30pm 34.4 35.9 23.1 51 7.9 NNW 20 30 11 16 1006.2 1004.7 0.0
25/04:00pm 33.8 35.2 22.9 53 7.6 N 20 28 11 15 1006.2 1004.7 0.0
25/03:30pm 33.6 34.7 23.0 54 7.4 NNW 22 32 12 17 1006.2 1004.7 0.0
25/03:00pm 33.1 32.8 22.5 53 7.3 NNW 28 35 15 19 1006.1 1004.6 0.0
25/02:30pm 34.1 34.6 21.9 49 8.4 NNW 22 28 12 15 1006.3 1004.8 0.0
25/02:00pm 34.5 37.1 21.2 46 9.1 NW 9 13 5 7 1006.4 1004.9 0.0
25/01:30pm 34.4 37.1 21.4 46 8.9 ENE 9 19 5 10 1006.6 1005.1 0.0
25/01:00pm 34.8 37.9 21.5 46 9.1 ENE 7 15 4 8 1007.2 1005.7 0.0
25/12:30pm 33.4 35.6 21.2 48 8.3 WNW 11 15 6 8 1008.0 1006.5 0.0
25/12:00pm 33.2 35.5 20.7 47 8.4 E 9 15 5 8 1008.3 1006.9 0.0
25/11:30am 34.1 37.1 21.2 47 8.8 SSE 7 13 4 7 1008.5 1007.1 0.0
25/11:00am 34.2 36.9 21.3 47 8.8 NNW 9 19 5 10 1008.8 1007.4 0.0
25/10:30am 32.6 35.0 20.8 49 8.0 WNW 9 15 5 8 1009.0 1007.6 0.0
25/10:00am 32.2 35.1 21.1 52 7.5 SE 7 17 4 9 1009.4 1008.0 0.0
25/09:30am 31.4 34.6 22.4 59 6.2 SSE 9 17 5 9 1009.7 1008.3 0.0
25/09:00am 30.8 34.7 22.9 62 5.5 SE 7 15 4 8 1009.9 1008.5 0.0
25/08:30am 29.2 33.0 23.4 71 4.0 SSE 9 13 5 7 1009.9 1008.5 0.0
25/08:00am 28.5 32.8 23.6 75 3.4 SSE 7 11 4 6 1009.8 1008.4 0.0
25/07:30am 28.2 32.6 23.8 77 3.1 SSW 7 11 4 6 1009.7 1008.3 0.0
25/07:00am 27.6 32.6 23.8 80 2.6 WSW 4 7 2 4 1009.5 1008.1 0.0
25/06:30am 26.8 32.9 24.5 87 1.6 CALM 0 0 0 0 1009.2 1007.8 0.0
25/06:00am 26.5 31.3 24.5 89 1.4 WSW 7 9 4 5 1008.7 1007.3 0.0
25/05:30am 26.7 31.5 24.4 87 1.6 WSW 7 9 4 5 1008.7 1007.3 0.0

Other Formats:

Comma delimited format used in spreadsheet applications
http://www.bom.gov.au/fwo/IDW60801/IDW60801.99311.axf

JavaScript Object Notation format (JSON) in row-major order
http://www.bom.gov.au/fwo/IDW60801/IDW60801.99311.json